Aviation Digital Data Service (ADDS)

Output produced by METARs form (1147 UTC 22 September 2017)
found at http://aviationweather.gov/adds/metars/
 
KPVD 221123Z 2212/2312 01021G31KT 6SM -SHRA OVC010 
     FM221700 01019G31KT P6SM -SHRA OVC015 
     FM222100 01019G30KT P6SM VCSH OVC015 
     FM230600 01014G22KT P6SM OVC020